Las Vegas, Nevada
Current Conditions -  °F | °C
As of 2:56 AM on Sunday 23 Nov 2014 (Local Time) from KLAS Reporting Station
Few Clouds Few Clouds  
Wind Chill: 15°   Ceiling: Unl
Heat Index: 15°   Visibility: 10mi
Dew Point: -3°   Wind: 25mph
Humidity: 28%   Direction: 310°NW
Pressure: 30.02"   Gusts: 38mph
Location:  36.17°N, 115.13°W
Report Text: KLAS 231056Z 31022G33KT 10SM FEW150 15/M03 A3002 RMK AO2 PK WND 34039/1036 SLP153 T01501033 $
Loading
Personal Weather Stations






























Interactive Weather Map New forecast layout! Learn more

10-Day Weather Forecast

Advertisements
Track Severe Weather on mobile